sensor_id;sensor_type;location;lat;lon;timestamp;P1;durP1;ratioP1;P2;durP2;ratioP2
77430;SDS011;66498;48.564;19.272;2024-01-06T00:01:30;24.00;;;20.48;;
77430;SDS011;66498;48.564;19.272;2024-01-06T00:03:55;26.75;;;21.92;;
77430;SDS011;66498;48.564;19.272;2024-01-06T00:06:21;28.67;;;21.27;;
77430;SDS011;66498;48.564;19.272;2024-01-06T00:08:47;29.17;;;23.98;;
77430;SDS011;66498;48.564;19.272;2024-01-06T00:11:19;32.80;;;25.90;;
77430;SDS011;66498;48.564;19.272;2024-01-06T00:13:45;25.83;;;22.13;;
77430;SDS011;66498;48.564;19.272;2024-01-06T00:16:11;31.35;;;27.25;;
77430;SDS011;66498;48.564;19.272;2024-01-06T00:18:36;21.45;;;15.65;;
77430;SDS011;66498;48.564;19.272;2024-01-06T00:21:02;22.90;;;15.68;;
77430;SDS011;66498;48.564;19.272;2024-01-06T00:23:27;21.63;;;16.77;;
77430;SDS011;66498;48.564;19.272;2024-01-06T00:25:53;23.15;;;17.73;;
77430;SDS011;66498;48.564;19.272;2024-01-06T00:28:18;23.52;;;18.63;;
77430;SDS011;66498;48.564;19.272;2024-01-06T00:30:45;23.10;;;16.98;;
77430;SDS011;66498;48.564;19.272;2024-01-06T00:33:10;22.70;;;16.85;;
77430;SDS011;66498;48.564;19.272;2024-01-06T00:35:37;23.52;;;17.10;;
77430;SDS011;66498;48.564;19.272;2024-01-06T00:38:02;20.83;;;14.35;;
77430;SDS011;66498;48.564;19.272;2024-01-06T00:40:28;17.10;;;12.20;;
77430;SDS011;66498;48.564;19.272;2024-01-06T00:42:53;17.52;;;12.07;;
77430;SDS011;66498;48.564;19.272;2024-01-06T00:45:18;17.70;;;12.57;;
77430;SDS011;66498;48.564;19.272;2024-01-06T00:47:44;17.25;;;12.23;;
77430;SDS011;66498;48.564;19.272;2024-01-06T00:50:09;18.33;;;12.80;;
77430;SDS011;66498;48.564;19.272;2024-01-06T00:52:35;15.43;;;12.30;;
77430;SDS011;66498;48.564;19.272;2024-01-06T00:55:00;15.00;;;11.90;;
77430;SDS011;66498;48.564;19.272;2024-01-06T00:57:26;16.55;;;12.15;;
77430;SDS011;66498;48.564;19.272;2024-01-06T00:59:52;16.50;;;12.20;;
77430;SDS011;66498;48.564;19.272;2024-01-06T01:02:17;14.93;;;11.07;;
77430;SDS011;66498;48.564;19.272;2024-01-06T01:04:42;16.90;;;12.30;;
77430;SDS011;66498;48.564;19.272;2024-01-06T01:07:09;16.33;;;12.45;;
77430;SDS011;66498;48.564;19.272;2024-01-06T01:09:35;16.10;;;12.68;;
77430;SDS011;66498;48.564;19.272;2024-01-06T01:12:00;15.48;;;12.15;;
77430;SDS011;66498;48.564;19.272;2024-01-06T01:14:26;18.70;;;12.93;;
77430;SDS011;66498;48.564;19.272;2024-01-06T01:16:52;16.98;;;12.55;;
77430;SDS011;66498;48.564;19.272;2024-01-06T01:19:17;16.67;;;12.75;;
77430;SDS011;66498;48.564;19.272;2024-01-06T01:21:43;17.02;;;12.60;;
77430;SDS011;66498;48.564;19.272;2024-01-06T01:24:08;17.27;;;12.40;;
77430;SDS011;66498;48.564;19.272;2024-01-06T01:26:34;17.38;;;12.80;;
77430;SDS011;66498;48.564;19.272;2024-01-06T01:28:59;18.23;;;14.13;;
77430;SDS011;66498;48.564;19.272;2024-01-06T01:31:25;18.63;;;13.70;;
77430;SDS011;66498;48.564;19.272;2024-01-06T01:33:50;19.48;;;13.85;;
77430;SDS011;66498;48.564;19.272;2024-01-06T01:36:15;18.02;;;13.02;;
77430;SDS011;66498;48.564;19.272;2024-01-06T01:38:43;19.27;;;12.70;;
77430;SDS011;66498;48.564;19.272;2024-01-06T01:41:08;20.05;;;14.95;;
77430;SDS011;66498;48.564;19.272;2024-01-06T01:43:34;20.25;;;15.38;;
77430;SDS011;66498;48.564;19.272;2024-01-06T01:45:59;27.02;;;18.25;;
77430;SDS011;66498;48.564;19.272;2024-01-06T01:48:25;21.27;;;16.00;;
77430;SDS011;66498;48.564;19.272;2024-01-06T01:50:51;21.38;;;15.30;;
77430;SDS011;66498;48.564;19.272;2024-01-06T01:53:18;21.13;;;14.23;;
77430;SDS011;66498;48.564;19.272;2024-01-06T01:55:45;17.08;;;13.43;;
77430;SDS011;66498;48.564;19.272;2024-01-06T01:58:12;18.77;;;13.70;;
77430;SDS011;66498;48.564;19.272;2024-01-06T02:00:39;19.05;;;13.68;;
77430;SDS011;66498;48.564;19.272;2024-01-06T02:03:05;18.77;;;12.88;;
77430;SDS011;66498;48.564;19.272;2024-01-06T02:05:31;20.42;;;15.02;;
77430;SDS011;66498;48.564;19.272;2024-01-06T02:07:56;24.63;;;16.55;;
77430;SDS011;66498;48.564;19.272;2024-01-06T02:10:22;23.95;;;15.95;;
77430;SDS011;66498;48.564;19.272;2024-01-06T02:12:48;21.95;;;15.15;;
77430;SDS011;66498;48.564;19.272;2024-01-06T02:15:16;21.10;;;14.85;;
77430;SDS011;66498;48.564;19.272;2024-01-06T02:17:42;21.17;;;14.10;;
77430;SDS011;66498;48.564;19.272;2024-01-06T02:20:08;17.70;;;13.02;;
77430;SDS011;66498;48.564;19.272;2024-01-06T02:22:35;19.05;;;13.40;;
77430;SDS011;66498;48.564;19.272;2024-01-06T02:25:01;18.15;;;13.50;;
77430;SDS011;66498;48.564;19.272;2024-01-06T02:27:32;17.60;;;13.43;;
77430;SDS011;66498;48.564;19.272;2024-01-06T02:29:58;21.40;;;13.98;;
77430;SDS011;66498;48.564;19.272;2024-01-06T02:32:23;18.30;;;13.82;;
77430;SDS011;66498;48.564;19.272;2024-01-06T02:34:48;29.20;;;17.70;;
77430;SDS011;66498;48.564;19.272;2024-01-06T02:37:14;29.73;;;18.17;;
77430;SDS011;66498;48.564;19.272;2024-01-06T02:39:39;22.45;;;16.15;;
77430;SDS011;66498;48.564;19.272;2024-01-06T02:42:05;19.40;;;13.25;;
77430;SDS011;66498;48.564;19.272;2024-01-06T02:44:30;16.55;;;12.60;;
77430;SDS011;66498;48.564;19.272;2024-01-06T02:46:56;18.08;;;12.82;;
77430;SDS011;66498;48.564;19.272;2024-01-06T02:49:21;18.15;;;13.43;;
77430;SDS011;66498;48.564;19.272;2024-01-06T02:51:47;18.15;;;13.13;;
77430;SDS011;66498;48.564;19.272;2024-01-06T02:54:12;14.88;;;11.50;;
77430;SDS011;66498;48.564;19.272;2024-01-06T02:56:38;14.48;;;10.85;;
77430;SDS011;66498;48.564;19.272;2024-01-06T02:59:03;16.17;;;11.60;;
77430;SDS011;66498;48.564;19.272;2024-01-06T03:01:29;16.33;;;11.77;;
77430;SDS011;66498;48.564;19.272;2024-01-06T03:03:56;18.67;;;13.02;;
77430;SDS011;66498;48.564;19.272;2024-01-06T03:06:22;24.65;;;15.82;;
77430;SDS011;66498;48.564;19.272;2024-01-06T03:08:47;21.70;;;14.77;;
77430;SDS011;66498;48.564;19.272;2024-01-06T03:11:12;18.83;;;13.98;;
77430;SDS011;66498;48.564;19.272;2024-01-06T03:13:38;18.63;;;13.18;;
77430;SDS011;66498;48.564;19.272;2024-01-06T03:16:04;16.38;;;12.23;;
77430;SDS011;66498;48.564;19.272;2024-01-06T03:18:30;17.15;;;11.15;;
77430;SDS011;66498;48.564;19.272;2024-01-06T03:20:56;15.95;;;10.82;;
77430;SDS011;66498;48.564;19.272;2024-01-06T03:23:21;18.40;;;12.60;;
77430;SDS011;66498;48.564;19.272;2024-01-06T03:25:47;18.23;;;13.05;;
77430;SDS011;66498;48.564;19.272;2024-01-06T03:28:12;19.98;;;13.02;;
77430;SDS011;66498;48.564;19.272;2024-01-06T03:30:38;18.67;;;12.35;;
77430;SDS011;66498;48.564;19.272;2024-01-06T03:33:04;17.13;;;12.23;;
77430;SDS011;66498;48.564;19.272;2024-01-06T03:35:30;20.02;;;14.00;;
77430;SDS011;66498;48.564;19.272;2024-01-06T03:37:56;19.02;;;13.52;;
77430;SDS011;66498;48.564;19.272;2024-01-06T03:40:21;21.75;;;14.15;;
77430;SDS011;66498;48.564;19.272;2024-01-06T03:42:47;17.75;;;13.52;;
77430;SDS011;66498;48.564;19.272;2024-01-06T03:45:13;23.52;;;14.38;;
77430;SDS011;66498;48.564;19.272;2024-01-06T03:47:38;20.10;;;14.15;;
77430;SDS011;66498;48.564;19.272;2024-01-06T03:50:04;19.10;;;13.13;;
77430;SDS011;66498;48.564;19.272;2024-01-06T03:52:30;19.58;;;13.88;;
77430;SDS011;66498;48.564;19.272;2024-01-06T03:54:55;17.02;;;13.27;;
77430;SDS011;66498;48.564;19.272;2024-01-06T03:57:21;17.35;;;12.60;;
77430;SDS011;66498;48.564;19.272;2024-01-06T03:59:46;19.02;;;12.50;;
77430;SDS011;66498;48.564;19.272;2024-01-06T04:02:12;18.50;;;13.65;;
77430;SDS011;66498;48.564;19.272;2024-01-06T04:04:37;18.00;;;12.80;;
77430;SDS011;66498;48.564;19.272;2024-01-06T04:07:03;16.63;;;11.40;;
77430;SDS011;66498;48.564;19.272;2024-01-06T04:09:28;17.70;;;11.80;;
77430;SDS011;66498;48.564;19.272;2024-01-06T04:11:54;17.20;;;11.13;;
77430;SDS011;66498;48.564;19.272;2024-01-06T04:14:19;17.17;;;11.40;;
77430;SDS011;66498;48.564;19.272;2024-01-06T04:16:45;18.23;;;12.20;;
77430;SDS011;66498;48.564;19.272;2024-01-06T04:19:10;17.55;;;13.50;;
77430;SDS011;66498;48.564;19.272;2024-01-06T04:21:37;17.52;;;13.70;;
77430;SDS011;66498;48.564;19.272;2024-01-06T04:24:03;18.92;;;13.85;;
77430;SDS011;66498;48.564;19.272;2024-01-06T04:26:29;16.00;;;12.55;;
77430;SDS011;66498;48.564;19.272;2024-01-06T04:28:54;17.40;;;13.48;;
77430;SDS011;66498;48.564;19.272;2024-01-06T04:31:20;18.02;;;14.27;;
77430;SDS011;66498;48.564;19.272;2024-01-06T04:33:45;18.15;;;14.32;;
77430;SDS011;66498;48.564;19.272;2024-01-06T04:36:11;18.58;;;13.45;;
77430;SDS011;66498;48.564;19.272;2024-01-06T04:38:36;17.30;;;12.82;;
77430;SDS011;66498;48.564;19.272;2024-01-06T04:41:01;21.95;;;14.85;;
77430;SDS011;66498;48.564;19.272;2024-01-06T04:43:27;17.92;;;13.70;;
77430;SDS011;66498;48.564;19.272;2024-01-06T04:45:52;18.00;;;12.90;;
77430;SDS011;66498;48.564;19.272;2024-01-06T04:48:18;18.13;;;13.30;;
77430;SDS011;66498;48.564;19.272;2024-01-06T04:50:43;18.10;;;13.45;;
77430;SDS011;66498;48.564;19.272;2024-01-06T04:53:09;18.50;;;13.75;;
77430;SDS011;66498;48.564;19.272;2024-01-06T04:55:34;32.38;;;22.48;;
77430;SDS011;66498;48.564;19.272;2024-01-06T04:58:00;39.30;;;27.73;;
77430;SDS011;66498;48.564;19.272;2024-01-06T05:00:25;37.97;;;26.88;;
77430;SDS011;66498;48.564;19.272;2024-01-06T05:02:51;36.75;;;26.60;;
77430;SDS011;66498;48.564;19.272;2024-01-06T05:05:16;39.75;;;27.05;;
77430;SDS011;66498;48.564;19.272;2024-01-06T05:07:42;43.20;;;29.35;;
77430;SDS011;66498;48.564;19.272;2024-01-06T05:10:08;28.08;;;19.50;;
77430;SDS011;66498;48.564;19.272;2024-01-06T05:12:33;24.20;;;17.33;;
77430;SDS011;66498;48.564;19.272;2024-01-06T05:14:59;21.38;;;16.17;;
77430;SDS011;66498;48.564;19.272;2024-01-06T05:17:24;24.25;;;17.15;;
77430;SDS011;66498;48.564;19.272;2024-01-06T05:19:50;22.88;;;16.77;;
77430;SDS011;66498;48.564;19.272;2024-01-06T05:22:16;22.05;;;15.73;;
77430;SDS011;66498;48.564;19.272;2024-01-06T05:24:41;19.83;;;15.00;;
77430;SDS011;66498;48.564;19.272;2024-01-06T05:27:06;20.40;;;14.55;;
77430;SDS011;66498;48.564;19.272;2024-01-06T05:29:32;19.42;;;14.13;;
77430;SDS011;66498;48.564;19.272;2024-01-06T05:31:57;19.70;;;14.10;;
77430;SDS011;66498;48.564;19.272;2024-01-06T05:34:23;20.90;;;13.88;;
77430;SDS011;66498;48.564;19.272;2024-01-06T05:36:48;19.67;;;13.70;;
77430;SDS011;66498;48.564;19.272;2024-01-06T05:39:14;20.52;;;14.55;;
77430;SDS011;66498;48.564;19.272;2024-01-06T05:41:40;21.75;;;14.50;;
77430;SDS011;66498;48.564;19.272;2024-01-06T05:44:05;30.35;;;18.63;;
77430;SDS011;66498;48.564;19.272;2024-01-06T05:46:31;25.10;;;17.35;;
77430;SDS011;66498;48.564;19.272;2024-01-06T05:48:57;26.65;;;17.50;;
77430;SDS011;66498;48.564;19.272;2024-01-06T05:51:24;24.77;;;16.73;;
77430;SDS011;66498;48.564;19.272;2024-01-06T05:53:50;23.85;;;16.17;;
77430;SDS011;66498;48.564;19.272;2024-01-06T05:56:25;23.67;;;16.13;;
77430;SDS011;66498;48.564;19.272;2024-01-06T05:58:51;22.08;;;15.88;;
77430;SDS011;66498;48.564;19.272;2024-01-06T06:01:17;22.20;;;15.90;;
77430;SDS011;66498;48.564;19.272;2024-01-06T06:03:43;20.73;;;14.75;;
77430;SDS011;66498;48.564;19.272;2024-01-06T06:06:09;21.25;;;14.65;;
77430;SDS011;66498;48.564;19.272;2024-01-06T06:08:36;24.15;;;16.85;;
77430;SDS011;66498;48.564;19.272;2024-01-06T06:11:02;23.23;;;16.50;;
77430;SDS011;66498;48.564;19.272;2024-01-06T06:13:30;21.90;;;15.50;;
77430;SDS011;66498;48.564;19.272;2024-01-06T06:15:56;21.67;;;15.02;;
77430;SDS011;66498;48.564;19.272;2024-01-06T06:18:21;24.65;;;17.05;;
77430;SDS011;66498;48.564;19.272;2024-01-06T06:20:47;29.45;;;20.65;;
77430;SDS011;66498;48.564;19.272;2024-01-06T06:23:13;32.58;;;23.35;;
77430;SDS011;66498;48.564;19.272;2024-01-06T06:25:38;30.83;;;21.05;;
77430;SDS011;66498;48.564;19.272;2024-01-06T06:28:04;38.75;;;26.13;;
77430;SDS011;66498;48.564;19.272;2024-01-06T06:30:30;49.00;;;30.38;;
77430;SDS011;66498;48.564;19.272;2024-01-06T06:32:55;56.95;;;33.13;;
77430;SDS011;66498;48.564;19.272;2024-01-06T06:35:22;52.53;;;31.80;;
77430;SDS011;66498;48.564;19.272;2024-01-06T06:37:48;56.63;;;33.38;;
77430;SDS011;66498;48.564;19.272;2024-01-06T06:40:14;45.95;;;27.92;;
77430;SDS011;66498;48.564;19.272;2024-01-06T06:42:40;45.95;;;28.48;;
77430;SDS011;66498;48.564;19.272;2024-01-06T06:45:05;39.03;;;25.83;;
77430;SDS011;66498;48.564;19.272;2024-01-06T06:47:31;44.78;;;27.20;;
77430;SDS011;66498;48.564;19.272;2024-01-06T06:49:57;40.92;;;26.48;;
77430;SDS011;66498;48.564;19.272;2024-01-06T06:52:22;39.78;;;26.58;;
77430;SDS011;66498;48.564;19.272;2024-01-06T06:54:47;37.85;;;25.38;;
77430;SDS011;66498;48.564;19.272;2024-01-06T06:57:14;42.38;;;26.42;;
77430;SDS011;66498;48.564;19.272;2024-01-06T06:59:40;45.47;;;29.50;;
77430;SDS011;66498;48.564;19.272;2024-01-06T07:02:06;49.72;;;30.98;;
77430;SDS011;66498;48.564;19.272;2024-01-06T07:04:32;43.63;;;27.55;;
77430;SDS011;66498;48.564;19.272;2024-01-06T07:06:57;36.85;;;26.15;;
77430;SDS011;66498;48.564;19.272;2024-01-06T07:09:23;38.33;;;24.02;;
77430;SDS011;66498;48.564;19.272;2024-01-06T07:11:49;41.05;;;25.65;;
77430;SDS011;66498;48.564;19.272;2024-01-06T07:14:15;34.47;;;22.35;;
77430;SDS011;66498;48.564;19.272;2024-01-06T07:16:41;30.15;;;20.40;;
77430;SDS011;66498;48.564;19.272;2024-01-06T07:19:06;27.63;;;20.65;;
77430;SDS011;66498;48.564;19.272;2024-01-06T07:21:32;24.75;;;19.38;;
77430;SDS011;66498;48.564;19.272;2024-01-06T07:23:57;20.90;;;16.05;;
77430;SDS011;66498;48.564;19.272;2024-01-06T07:26:23;19.65;;;14.10;;
77430;SDS011;66498;48.564;19.272;2024-01-06T07:28:48;16.65;;;13.40;;
77430;SDS011;66498;48.564;19.272;2024-01-06T07:31:14;18.48;;;12.90;;
77430;SDS011;66498;48.564;19.272;2024-01-06T07:33:39;17.40;;;12.65;;
77430;SDS011;66498;48.564;19.272;2024-01-06T07:36:05;16.42;;;12.75;;
77430;SDS011;66498;48.564;19.272;2024-01-06T07:38:31;16.35;;;13.00;;
77430;SDS011;66498;48.564;19.272;2024-01-06T07:40:56;19.63;;;13.93;;
77430;SDS011;66498;48.564;19.272;2024-01-06T07:43:22;17.42;;;13.65;;
77430;SDS011;66498;48.564;19.272;2024-01-06T07:45:47;18.08;;;13.60;;
77430;SDS011;66498;48.564;19.272;2024-01-06T07:48:14;20.05;;;15.30;;
77430;SDS011;66498;48.564;19.272;2024-01-06T07:50:40;20.08;;;16.05;;
77430;SDS011;66498;48.564;19.272;2024-01-06T07:53:05;25.25;;;17.23;;
77430;SDS011;66498;48.564;19.272;2024-01-06T07:55:31;24.23;;;18.25;;
77430;SDS011;66498;48.564;19.272;2024-01-06T07:57:56;25.65;;;19.88;;
77430;SDS011;66498;48.564;19.272;2024-01-06T08:00:22;27.02;;;20.73;;
77430;SDS011;66498;48.564;19.272;2024-01-06T08:02:48;31.67;;;21.27;;
77430;SDS011;66498;48.564;19.272;2024-01-06T08:05:13;30.08;;;20.45;;
77430;SDS011;66498;48.564;19.272;2024-01-06T08:07:39;24.35;;;17.52;;
77430;SDS011;66498;48.564;19.272;2024-01-06T08:10:05;20.23;;;14.00;;
77430;SDS011;66498;48.564;19.272;2024-01-06T08:12:31;21.83;;;15.88;;
77430;SDS011;66498;48.564;19.272;2024-01-06T08:14:57;19.77;;;15.73;;
77430;SDS011;66498;48.564;19.272;2024-01-06T08:17:22;21.35;;;15.70;;
77430;SDS011;66498;48.564;19.272;2024-01-06T08:19:48;21.83;;;17.58;;
77430;SDS011;66498;48.564;19.272;2024-01-06T08:22:14;20.83;;;17.52;;
77430;SDS011;66498;48.564;19.272;2024-01-06T08:24:39;24.38;;;19.55;;
77430;SDS011;66498;48.564;19.272;2024-01-06T08:27:05;22.10;;;14.93;;
77430;SDS011;66498;48.564;19.272;2024-01-06T08:29:31;19.00;;;13.88;;
77430;SDS011;66498;48.564;19.272;2024-01-06T08:31:56;19.70;;;14.18;;
77430;SDS011;66498;48.564;19.272;2024-01-06T08:34:22;17.33;;;13.98;;
77430;SDS011;66498;48.564;19.272;2024-01-06T08:36:48;17.65;;;13.25;;
77430;SDS011;66498;48.564;19.272;2024-01-06T08:39:13;18.90;;;12.88;;
77430;SDS011;66498;48.564;19.272;2024-01-06T08:41:39;26.15;;;22.50;;
77430;SDS011;66498;48.564;19.272;2024-01-06T08:44:04;35.85;;;29.35;;
77430;SDS011;66498;48.564;19.272;2024-01-06T08:46:30;30.40;;;24.95;;
77430;SDS011;66498;48.564;19.272;2024-01-06T08:48:56;27.55;;;22.17;;
77430;SDS011;66498;48.564;19.272;2024-01-06T08:51:21;27.60;;;22.02;;
77430;SDS011;66498;48.564;19.272;2024-01-06T08:53:49;23.45;;;18.98;;
77430;SDS011;66498;48.564;19.272;2024-01-06T08:56:14;20.77;;;16.67;;
77430;SDS011;66498;48.564;19.272;2024-01-06T08:58:42;23.45;;;16.88;;
77430;SDS011;66498;48.564;19.272;2024-01-06T09:01:08;18.27;;;14.55;;
77430;SDS011;66498;48.564;19.272;2024-01-06T09:03:34;20.20;;;14.40;;
77430;SDS011;66498;48.564;19.272;2024-01-06T09:05:59;18.55;;;13.90;;
77430;SDS011;66498;48.564;19.272;2024-01-06T09:08:25;18.10;;;13.02;;
77430;SDS011;66498;48.564;19.272;2024-01-06T09:10:50;17.55;;;13.40;;
77430;SDS011;66498;48.564;19.272;2024-01-06T09:13:22;17.75;;;13.85;;
77430;SDS011;66498;48.564;19.272;2024-01-06T09:15:49;19.33;;;15.48;;
77430;SDS011;66498;48.564;19.272;2024-01-06T09:18:16;21.60;;;15.82;;
77430;SDS011;66498;48.564;19.272;2024-01-06T09:20:41;20.10;;;15.77;;
77430;SDS011;66498;48.564;19.272;2024-01-06T09:23:07;24.13;;;17.77;;
77430;SDS011;66498;48.564;19.272;2024-01-06T09:25:32;23.85;;;17.27;;
77430;SDS011;66498;48.564;19.272;2024-01-06T09:27:58;21.83;;;16.50;;
77430;SDS011;66498;48.564;19.272;2024-01-06T09:30:24;26.55;;;19.92;;
77430;SDS011;66498;48.564;19.272;2024-01-06T09:32:51;26.95;;;21.00;;
77430;SDS011;66498;48.564;19.272;2024-01-06T09:35:16;25.60;;;19.38;;
77430;SDS011;66498;48.564;19.272;2024-01-06T09:37:42;30.60;;;22.15;;
77430;SDS011;66498;48.564;19.272;2024-01-06T09:40:08;34.75;;;25.17;;
77430;SDS011;66498;48.564;19.272;2024-01-06T09:42:40;33.05;;;23.65;;
77430;SDS011;66498;48.564;19.272;2024-01-06T09:45:06;29.00;;;22.17;;
77430;SDS011;66498;48.564;19.272;2024-01-06T09:47:33;24.77;;;20.10;;
77430;SDS011;66498;48.564;19.272;2024-01-06T09:50:00;29.17;;;23.38;;
77430;SDS011;66498;48.564;19.272;2024-01-06T09:52:29;28.38;;;23.15;;
77430;SDS011;66498;48.564;19.272;2024-01-06T09:54:57;28.60;;;22.50;;
77430;SDS011;66498;48.564;19.272;2024-01-06T09:57:27;45.20;;;33.60;;
77430;SDS011;66498;48.564;19.272;2024-01-06T09:59:54;41.80;;;33.17;;
77430;SDS011;66498;48.564;19.272;2024-01-06T10:02:21;43.75;;;34.10;;
77430;SDS011;66498;48.564;19.272;2024-01-06T10:04:48;50.97;;;37.90;;
77430;SDS011;66498;48.564;19.272;2024-01-06T10:07:13;45.13;;;34.10;;
77430;SDS011;66498;48.564;19.272;2024-01-06T10:09:40;36.40;;;29.33;;
77430;SDS011;66498;48.564;19.272;2024-01-06T10:12:09;37.05;;;27.98;;
77430;SDS011;66498;48.564;19.272;2024-01-06T10:14:35;33.03;;;26.02;;
77430;SDS011;66498;48.564;19.272;2024-01-06T10:17:05;34.75;;;27.05;;
77430;SDS011;66498;48.564;19.272;2024-01-06T10:19:31;32.03;;;25.15;;
77430;SDS011;66498;48.564;19.272;2024-01-06T10:21:59;35.33;;;25.02;;
77430;SDS011;66498;48.564;19.272;2024-01-06T10:24:27;29.45;;;23.05;;
77430;SDS011;66498;48.564;19.272;2024-01-06T10:26:53;26.83;;;22.17;;
77430;SDS011;66498;48.564;19.272;2024-01-06T10:29:19;27.50;;;21.52;;
77430;SDS011;66498;48.564;19.272;2024-01-06T10:31:44;27.45;;;20.73;;
77430;SDS011;66498;48.564;19.272;2024-01-06T10:34:10;24.52;;;20.98;;
77430;SDS011;66498;48.564;19.272;2024-01-06T10:36:35;27.40;;;21.30;;
77430;SDS011;66498;48.564;19.272;2024-01-06T10:39:02;28.90;;;23.48;;
77430;SDS011;66498;48.564;19.272;2024-01-06T10:41:29;27.35;;;20.92;;
77430;SDS011;66498;48.564;19.272;2024-01-06T10:43:55;23.27;;;17.63;;
77430;SDS011;66498;48.564;19.272;2024-01-06T10:46:26;21.00;;;17.98;;
77430;SDS011;66498;48.564;19.272;2024-01-06T10:48:53;19.90;;;15.88;;
77430;SDS011;66498;48.564;19.272;2024-01-06T10:51:22;20.40;;;15.30;;
77430;SDS011;66498;48.564;19.272;2024-01-06T10:53:50;20.48;;;15.68;;
77430;SDS011;66498;48.564;19.272;2024-01-06T10:56:17;19.45;;;14.70;;
77430;SDS011;66498;48.564;19.272;2024-01-06T10:58:46;19.95;;;14.95;;
77430;SDS011;66498;48.564;19.272;2024-01-06T11:01:15;22.13;;;16.85;;
77430;SDS011;66498;48.564;19.272;2024-01-06T11:03:45;23.95;;;18.33;;
77430;SDS011;66498;48.564;19.272;2024-01-06T11:06:12;24.15;;;18.27;;
77430;SDS011;66498;48.564;19.272;2024-01-06T11:08:41;25.00;;;17.45;;
77430;SDS011;66498;48.564;19.272;2024-01-06T11:11:18;26.05;;;19.08;;
77430;SDS011;66498;48.564;19.272;2024-01-06T11:13:44;24.02;;;19.42;;
77430;SDS011;66498;48.564;19.272;2024-01-06T11:16:12;20.15;;;15.05;;
77430;SDS011;66498;48.564;19.272;2024-01-06T11:19:01;19.98;;;14.35;;
77430;SDS011;66498;48.564;19.272;2024-01-06T11:21:27;19.35;;;12.95;;
77430;SDS011;66498;48.564;19.272;2024-01-06T11:26:32;16.42;;;11.85;;
77430;SDS011;66498;48.564;19.272;2024-01-06T11:28:58;15.70;;;11.20;;
77430;SDS011;66498;48.564;19.272;2024-01-06T11:31:31;15.30;;;10.63;;
77430;SDS011;66498;48.564;19.272;2024-01-06T11:33:58;15.25;;;11.70;;
77430;SDS011;66498;48.564;19.272;2024-01-06T11:36:43;19.70;;;15.25;;
77430;SDS011;66498;48.564;19.272;2024-01-06T11:42:03;25.85;;;19.83;;
77430;SDS011;66498;48.564;19.272;2024-01-06T11:44:29;26.23;;;21.38;;
77430;SDS011;66498;48.564;19.272;2024-01-06T11:46:59;27.90;;;23.45;;
77430;SDS011;66498;48.564;19.272;2024-01-06T11:49:27;30.63;;;25.27;;
77430;SDS011;66498;48.564;19.272;2024-01-06T11:51:53;41.80;;;33.85;;
77430;SDS011;66498;48.564;19.272;2024-01-06T11:54:20;165.82;;;108.82;;
77430;SDS011;66498;48.564;19.272;2024-01-06T11:56:46;49.97;;;39.42;;
77430;SDS011;66498;48.564;19.272;2024-01-06T11:59:12;80.50;;;46.20;;
77430;SDS011;66498;48.564;19.272;2024-01-06T12:01:38;36.08;;;29.92;;
77430;SDS011;66498;48.564;19.272;2024-01-06T12:04:04;86.55;;;55.38;;
77430;SDS011;66498;48.564;19.272;2024-01-06T12:06:31;109.60;;;72.07;;
77430;SDS011;66498;48.564;19.272;2024-01-06T12:09:04;266.15;;;161.02;;
77430;SDS011;66498;48.564;19.272;2024-01-06T12:11:33;128.02;;;78.95;;
77430;SDS011;66498;48.564;19.272;2024-01-06T12:13:58;30.13;;;23.35;;
77430;SDS011;66498;48.564;19.272;2024-01-06T12:16:24;42.28;;;30.60;;
77430;SDS011;66498;48.564;19.272;2024-01-06T12:18:52;29.02;;;22.50;;
77430;SDS011;66498;48.564;19.272;2024-01-06T12:21:25;43.97;;;32.42;;
77430;SDS011;66498;48.564;19.272;2024-01-06T12:23:50;48.85;;;34.58;;
77430;SDS011;66498;48.564;19.272;2024-01-06T12:26:17;43.38;;;33.10;;
77430;SDS011;66498;48.564;19.272;2024-01-06T12:28:46;38.53;;;27.90;;
77430;SDS011;66498;48.564;19.272;2024-01-06T12:31:12;30.58;;;24.30;;
77430;SDS011;66498;48.564;19.272;2024-01-06T12:33:39;32.47;;;25.52;;
77430;SDS011;66498;48.564;19.272;2024-01-06T12:36:08;27.90;;;21.67;;
77430;SDS011;66498;48.564;19.272;2024-01-06T12:38:36;26.02;;;22.13;;
77430;SDS011;66498;48.564;19.272;2024-01-06T12:41:03;33.42;;;24.92;;
77430;SDS011;66498;48.564;19.272;2024-01-06T12:43:30;321.60;;;171.30;;
77430;SDS011;66498;48.564;19.272;2024-01-06T12:45:55;464.40;;;261.80;;
77430;SDS011;66498;48.564;19.272;2024-01-06T12:48:23;197.00;;;128.60;;
77430;SDS011;66498;48.564;19.272;2024-01-06T12:50:49;32.15;;;24.92;;
77430;SDS011;66498;48.564;19.272;2024-01-06T12:53:14;29.17;;;22.42;;
77430;SDS011;66498;48.564;19.272;2024-01-06T12:55:46;27.13;;;21.92;;
77430;SDS011;66498;48.564;19.272;2024-01-06T12:58:12;30.25;;;25.20;;
77430;SDS011;66498;48.564;19.272;2024-01-06T13:00:38;41.83;;;33.80;;
77430;SDS011;66498;48.564;19.272;2024-01-06T13:03:05;30.48;;;23.80;;
77430;SDS011;66498;48.564;19.272;2024-01-06T13:05:30;29.45;;;22.63;;
77430;SDS011;66498;48.564;19.272;2024-01-06T13:07:56;28.23;;;21.58;;
77430;SDS011;66498;48.564;19.272;2024-01-06T13:10:22;26.67;;;20.35;;
77430;SDS011;66498;48.564;19.272;2024-01-06T13:12:48;36.10;;;30.52;;
77430;SDS011;66498;48.564;19.272;2024-01-06T13:15:15;29.10;;;20.92;;
77430;SDS011;66498;48.564;19.272;2024-01-06T13:17:41;26.38;;;21.55;;
77430;SDS011;66498;48.564;19.272;2024-01-06T13:20:06;27.50;;;21.27;;
77430;SDS011;66498;48.564;19.272;2024-01-06T13:22:33;28.05;;;22.13;;
77430;SDS011;66498;48.564;19.272;2024-01-06T13:24:59;27.92;;;21.83;;
77430;SDS011;66498;48.564;19.272;2024-01-06T13:27:25;27.88;;;21.15;;
77430;SDS011;66498;48.564;19.272;2024-01-06T13:29:54;28.15;;;22.23;;
77430;SDS011;66498;48.564;19.272;2024-01-06T13:32:20;28.73;;;22.80;;
77430;SDS011;66498;48.564;19.272;2024-01-06T13:34:47;31.55;;;24.13;;
77430;SDS011;66498;48.564;19.272;2024-01-06T13:37:13;109.72;;;76.47;;
77430;SDS011;66498;48.564;19.272;2024-01-06T13:39:39;57.83;;;43.95;;
77430;SDS011;66498;48.564;19.272;2024-01-06T13:42:04;36.55;;;28.65;;
77430;SDS011;66498;48.564;19.272;2024-01-06T13:44:30;24.50;;;18.13;;
77430;SDS011;66498;48.564;19.272;2024-01-06T13:46:56;28.60;;;24.98;;
77430;SDS011;66498;48.564;19.272;2024-01-06T13:49:22;23.65;;;18.55;;
77430;SDS011;66498;48.564;19.272;2024-01-06T13:51:49;33.20;;;27.83;;
77430;SDS011;66498;48.564;19.272;2024-01-06T13:54:15;28.27;;;23.65;;
77430;SDS011;66498;48.564;19.272;2024-01-06T13:56:40;28.00;;;21.55;;
77430;SDS011;66498;48.564;19.272;2024-01-06T13:59:06;25.13;;;19.08;;
77430;SDS011;66498;48.564;19.272;2024-01-06T14:01:32;24.00;;;19.80;;
77430;SDS011;66498;48.564;19.272;2024-01-06T14:03:58;26.38;;;21.25;;
77430;SDS011;66498;48.564;19.272;2024-01-06T14:06:25;37.65;;;26.42;;
77430;SDS011;66498;48.564;19.272;2024-01-06T14:08:54;28.90;;;21.58;;